createdAt,value
2022-08-03T00:04:34.198Z,88.72
2022-08-03T00:09:37.452Z,88.94
2022-08-03T00:14:40.722Z,89.45
2022-08-03T00:19:46.901Z,89.08
2022-08-03T00:24:49.934Z,89.47
2022-08-03T00:29:59.340Z,88.19
2022-08-03T00:35:08.355Z,90.51
2022-08-03T00:40:14.681Z,90.09
2022-08-03T00:45:18.267Z,89.63
2022-08-03T00:50:24.132Z,89.09
2022-08-03T00:55:27.304Z,89.56
2022-08-03T01:00:30.272Z,90.44
2022-08-03T01:05:46.334Z,90.49
2022-08-03T01:10:58.411Z,91.94
2022-08-03T01:16:07.314Z,90.54
2022-08-03T01:21:19.260Z,92.26
2022-08-03T01:26:43.755Z,91.16
2022-08-03T01:32:52.495Z,90.94
2022-08-03T01:37:23.826Z,91.77
2022-08-03T01:42:28.451Z,91.37
2022-08-03T01:47:34.714Z,91.98
2022-08-03T01:52:40.613Z,92.50
2022-08-03T01:58:05.965Z,93.58
2022-08-03T02:03:13.482Z,91.65
2022-08-03T02:08:19.874Z,91.89
2022-08-03T02:13:25.585Z,93.19
2022-08-03T02:18:31.920Z,92.33
2022-08-03T02:23:35.337Z,94.23
2022-08-03T02:28:43.082Z,93.43
2022-08-03T02:33:51.764Z,93.75
2022-08-03T02:38:58.448Z,94.79
2022-08-03T02:44:08.527Z,95.33
2022-08-03T02:49:40.510Z,94.39
2022-08-03T02:54:40.650Z,93.77
2022-08-03T02:59:45.510Z,94.17
2022-08-03T03:05:52.873Z,92.92
2022-08-03T03:10:16.437Z,94.32
2022-08-03T03:15:20.094Z,93.04
2022-08-03T03:20:30.009Z,93.96
2022-08-03T03:25:34.869Z,94.73
2022-08-03T03:30:37.971Z,94.89
2022-08-03T03:35:45.710Z,94.72
2022-08-03T03:40:49.833Z,94.40
2022-08-03T03:45:54.002Z,95.03
2022-08-03T03:50:59.322Z,95.45
2022-08-03T03:56:03.136Z,94.10
2022-08-03T04:01:06.298Z,95.24
2022-08-03T04:06:28.299Z,95.31
2022-08-03T04:11:37.396Z,95.29
2022-08-03T04:16:44.207Z,95.97
2022-08-03T04:21:51.962Z,97.29
2022-08-03T04:26:57.216Z,97.49
2022-08-03T04:32:03.194Z,96.64
2022-08-03T04:37:13.629Z,98.16
2022-08-03T04:42:18.139Z,97.04
2022-08-03T04:47:22.074Z,95.09
2022-08-03T04:52:26.609Z,95.90
2022-08-03T04:57:29.704Z,96.35
2022-08-03T05:02:33.717Z,96.00
2022-08-03T05:07:38.167Z,97.61
2022-08-03T05:12:42.146Z,95.13
2022-08-03T05:17:45.235Z,95.81
2022-08-03T05:22:49.586Z,96.59
2022-08-03T05:27:52.709Z,96.42
2022-08-03T05:32:55.844Z,98.66
2022-08-03T05:38:00.184Z,100.00
2022-08-03T05:43:03.337Z,100.00
2022-08-03T05:48:06.862Z,100.00
2022-08-03T05:53:11.607Z,100.00
2022-08-03T05:58:14.674Z,100.00
2022-08-03T06:03:17.693Z,100.00
2022-08-03T06:08:25.963Z,100.00
2022-08-03T06:13:29.076Z,100.00
2022-08-03T06:18:32.539Z,100.00
2022-08-03T06:23:54.320Z,100.00
2022-08-03T06:28:58.456Z,100.00
2022-08-03T06:34:34.861Z,100.00
2022-08-03T06:39:28.618Z,100.00
2022-08-03T06:44:31.797Z,100.00
2022-08-03T06:49:34.874Z,99.92
2022-08-03T06:54:39.603Z,100.00
2022-08-03T07:00:09.680Z,100.00
2022-08-03T07:05:06.213Z,100.00
2022-08-03T07:10:11.996Z,100.00
2022-08-03T07:15:20.495Z,100.00
2022-08-03T07:20:38.246Z,100.00
2022-08-03T07:25:42.634Z,100.00
2022-08-03T07:30:45.797Z,100.00
2022-08-03T07:35:49.208Z,99.05
2022-08-03T07:40:55.156Z,100.00
2022-08-03T07:45:58.310Z,97.33
2022-08-03T07:51:01.541Z,93.53
2022-08-03T07:56:06.577Z,93.43
2022-08-03T08:01:15.173Z,94.10
2022-08-03T08:06:19.261Z,95.03
2022-08-03T08:11:23.655Z,94.25
2022-08-03T08:16:26.696Z,90.03
2022-08-03T08:21:53.658Z,89.39
2022-08-03T08:26:54.387Z,88.78
2022-08-03T08:31:57.420Z,88.53
2022-08-03T08:37:00.417Z,86.43
2022-08-03T08:42:04.999Z,84.01
2022-08-03T08:47:10.174Z,83.85
2022-08-03T08:52:25.441Z,81.24
2022-08-03T08:57:43.111Z,79.23
2022-08-03T09:02:47.116Z,79.57
2022-08-03T09:07:50.743Z,76.24
2022-08-03T09:12:55.335Z,75.59
2022-08-03T09:18:00.031Z,73.33
2022-08-03T09:23:44.504Z,73.58
2022-08-03T09:29:00.111Z,70.95
2022-08-03T09:34:02.605Z,72.32
2022-08-03T09:39:07.282Z,67.83
2022-08-03T09:44:24.187Z,67.38
2022-08-03T09:49:28.890Z,67.00
2022-08-03T09:54:34.257Z,63.59
2022-08-03T09:59:41.177Z,63.44
2022-08-03T10:04:50.035Z,62.63
2022-08-03T10:09:58.386Z,60.93
2022-08-03T10:16:23.005Z,60.59
2022-08-03T10:20:52.182Z,58.17
2022-08-03T10:26:03.078Z,56.98
2022-08-03T10:31:09.450Z,57.61
2022-08-03T10:36:14.842Z,58.00
2022-08-03T10:41:21.074Z,56.28
2022-08-03T10:46:27.744Z,57.02
2022-08-03T10:51:32.268Z,56.55
2022-08-03T10:57:01.850Z,55.20
2022-08-03T11:02:18.713Z,55.27
2022-08-03T11:07:23.787Z,52.96
2022-08-03T11:12:31.137Z,56.01
2022-08-03T11:17:46.322Z,52.08
2022-08-03T11:23:01.210Z,50.86
2022-08-03T11:28:36.817Z,50.49
2022-08-03T11:33:41.673Z,49.82
2022-08-03T11:39:16.975Z,49.78
2022-08-03T11:44:41.080Z,49.19
2022-08-03T11:49:47.908Z,49.34
2022-08-03T11:54:56.928Z,51.14
2022-08-03T12:00:01.045Z,52.79
2022-08-03T12:05:06.718Z,52.99
2022-08-03T12:10:11.604Z,52.68
2022-08-03T12:15:14.946Z,52.59
2022-08-03T12:20:34.590Z,51.30
2022-08-03T12:25:40.028Z,51.32
2022-08-03T12:30:44.666Z,48.95
2022-08-03T12:35:52.644Z,50.60
2022-08-03T12:41:02.693Z,49.94
2022-08-03T12:46:14.812Z,48.96
2022-08-03T12:51:19.668Z,50.78
2022-08-03T12:56:22.846Z,51.38
2022-08-03T13:01:27.986Z,48.66
2022-08-03T13:06:32.742Z,48.57
2022-08-03T13:11:53.621Z,50.14
2022-08-03T13:16:58.922Z,48.39
2022-08-03T13:22:13.030Z,47.25
2022-08-03T13:27:30.858Z,49.20
2022-08-03T13:32:40.388Z,49.25
2022-08-03T13:37:48.827Z,47.46
2022-08-03T13:42:52.377Z,49.39
2022-08-03T13:47:55.388Z,48.78
2022-08-03T13:52:59.811Z,50.39
2022-08-03T13:58:07.508Z,49.44
2022-08-03T14:03:14.202Z,49.20
2022-08-03T14:08:19.267Z,50.25
2022-08-03T14:13:22.898Z,49.93
2022-08-03T14:18:28.535Z,49.37
2022-08-03T14:23:38.684Z,48.72
2022-08-03T14:28:41.948Z,48.80
2022-08-03T14:33:45.168Z,48.35
2022-08-03T14:38:49.688Z,49.91
2022-08-03T14:44:01.634Z,46.00
2022-08-03T14:50:36.345Z,46.79
2022-08-03T14:54:31.440Z,47.78
2022-08-03T14:59:56.752Z,46.38
2022-08-03T15:04:57.901Z,45.28
2022-08-03T15:10:02.534Z,45.56
2022-08-03T15:15:06.339Z,46.61
2022-08-03T15:20:19.569Z,48.35
2022-08-03T15:26:31.812Z,44.72
2022-08-03T15:30:57.837Z,45.23
2022-08-03T15:36:01.171Z,46.90
2022-08-03T15:41:05.661Z,45.45
2022-08-03T15:46:30.291Z,43.77
2022-08-03T15:51:33.480Z,45.58
2022-08-03T15:56:37.873Z,44.83
2022-08-03T16:01:41.628Z,45.98
2022-08-03T16:06:44.794Z,46.17
2022-08-03T16:11:51.813Z,44.32
2022-08-03T16:16:55.037Z,44.32
2022-08-03T16:21:58.026Z,44.74
2022-08-03T16:27:02.378Z,45.55
2022-08-03T16:32:09.487Z,44.71
2022-08-03T16:37:36.990Z,45.24
2022-08-03T16:42:38.887Z,43.21
2022-08-03T16:47:42.046Z,39.97
2022-08-03T16:52:47.303Z,40.57
2022-08-03T16:57:59.118Z,42.58
2022-08-03T17:03:19.094Z,43.80
2022-08-03T17:08:26.603Z,45.85
2022-08-03T17:13:39.792Z,46.07
2022-08-03T17:18:48.468Z,45.55
2022-08-03T17:23:57.608Z,47.23
2022-08-03T17:29:11.288Z,46.83
2022-08-03T17:34:16.750Z,48.12
2022-08-03T17:39:35.913Z,48.61
2022-08-03T17:44:47.145Z,48.71
2022-08-03T17:49:50.486Z,50.49
2022-08-03T17:55:57.714Z,49.19
2022-08-03T18:00:47.648Z,49.03
2022-08-03T18:06:11.748Z,49.27
2022-08-03T18:11:21.812Z,51.69
2022-08-03T18:16:32.934Z,52.75
2022-08-03T18:22:02.057Z,53.31
2022-08-03T18:27:02.587Z,53.63
2022-08-03T18:32:13.522Z,53.03
2022-08-03T18:37:25.267Z,54.21
2022-08-03T18:42:28.784Z,56.01
2022-08-03T18:47:53.074Z,55.22
2022-08-03T18:53:03.779Z,55.95
2022-08-03T18:58:26.193Z,55.86
2022-08-03T19:03:42.796Z,55.82
2022-08-03T19:08:50.440Z,56.34
2022-08-03T19:13:57.541Z,56.50
2022-08-03T19:19:03.851Z,57.22
2022-08-03T19:24:10.623Z,58.33
2022-08-03T19:29:15.526Z,58.83
2022-08-03T19:34:21.640Z,59.41
2022-08-03T19:39:27.904Z,59.80
2022-08-03T19:44:38.015Z,60.59
2022-08-03T19:50:04.640Z,61.29
2022-08-03T19:55:12.092Z,61.76
2022-08-03T20:00:19.541Z,62.92
2022-08-03T20:05:24.656Z,63.88
2022-08-03T20:10:30.511Z,65.18
2022-08-03T20:15:33.540Z,65.29
2022-08-03T20:20:49.589Z,66.19
2022-08-03T20:25:59.203Z,66.41
2022-08-03T20:31:02.567Z,67.14
2022-08-03T20:36:07.592Z,68.31
2022-08-03T20:41:13.843Z,68.67
2022-08-03T20:46:31.867Z,69.18
2022-08-03T20:51:50.678Z,69.38
2022-08-03T20:56:57.971Z,69.17
2022-08-03T21:02:01.241Z,69.56
2022-08-03T21:07:16.609Z,69.96
2022-08-03T21:12:28.922Z,70.16
2022-08-03T21:17:41.676Z,70.18
2022-08-03T21:22:50.792Z,70.89
2022-08-03T21:27:54.708Z,72.38
2022-08-03T21:32:59.136Z,72.28
2022-08-03T21:38:29.980Z,72.49
2022-08-03T21:43:33.210Z,74.09
2022-08-03T21:48:40.190Z,73.39
2022-08-03T21:54:02.491Z,74.40
2022-08-03T21:59:08.662Z,75.32
2022-08-03T22:04:50.651Z,74.97
2022-08-03T22:09:36.951Z,76.49
2022-08-03T22:14:41.129Z,77.46
2022-08-03T22:19:44.923Z,78.16
2022-08-03T22:24:51.880Z,78.03
2022-08-03T22:29:55.305Z,79.08
2022-08-03T22:35:00.364Z,79.23
2022-08-03T22:40:08.084Z,78.88
2022-08-03T22:45:12.001Z,79.31
2022-08-03T22:50:36.071Z,79.49
2022-08-03T22:55:40.870Z,78.98
2022-08-03T23:00:53.683Z,78.82
2022-08-03T23:06:03.563Z,78.61
2022-08-03T23:11:09.551Z,79.75
2022-08-03T23:16:12.806Z,80.71
2022-08-03T23:21:17.492Z,81.52
2022-08-03T23:26:42.979Z,81.26
2022-08-03T23:31:47.905Z,81.17
2022-08-03T23:36:51.066Z,81.93
2022-08-03T23:41:56.307Z,82.06
2022-08-03T23:46:59.370Z,83.09
2022-08-03T23:52:08.763Z,83.26
2022-08-03T23:57:20.258Z,83.97
